sensor_id;sensor_type;location;lat;lon;timestamp;P1;P2;P0
73828;PMS7003;62176;48.450;-4.466;2022-08-27T00:01:08;10.00;7.25;6.00
73828;PMS7003;62176;48.450;-4.466;2022-08-27T00:03:34;6.00;6.00;5.25
73828;PMS7003;62176;48.450;-4.466;2022-08-27T00:06:00;6.00;6.00;5.00
73828;PMS7003;62176;48.450;-4.466;2022-08-27T00:08:26;11.25;7.00;5.00
73828;PMS7003;62176;48.450;-4.466;2022-08-27T00:10:51;5.00;5.00;4.00
73828;PMS7003;62176;48.450;-4.466;2022-08-27T00:13:17;6.00;5.00;4.00
73828;PMS7003;62176;48.450;-4.466;2022-08-27T00:15:42;5.00;4.00;4.00
73828;PMS7003;62176;48.450;-4.466;2022-08-27T00:18:08;4.25;3.75;3.00
73828;PMS7003;62176;48.450;-4.466;2022-08-27T00:20:33;3.50;3.25;2.25
73828;PMS7003;62176;48.450;-4.466;2022-08-27T00:22:59;4.00;4.00;3.00
73828;PMS7003;62176;48.450;-4.466;2022-08-27T00:25:24;5.00;5.00;4.25
73828;PMS7003;62176;48.450;-4.466;2022-08-27T00:27:51;3.75;3.75;3.00
73828;PMS7003;62176;48.450;-4.466;2022-08-27T00:30:18;5.75;5.75;4.25
73828;PMS7003;62176;48.450;-4.466;2022-08-27T00:32:44;4.50;4.25;3.75
73828;PMS7003;62176;48.450;-4.466;2022-08-27T00:35:10;7.00;5.50;4.00
73828;PMS7003;62176;48.450;-4.466;2022-08-27T00:37:38;6.50;6.50;4.50
73828;PMS7003;62176;48.450;-4.466;2022-08-27T00:40:05;5.75;5.75;3.75
73828;PMS7003;62176;48.450;-4.466;2022-08-27T00:42:32;5.25;4.00;3.50
73828;PMS7003;62176;48.450;-4.466;2022-08-27T00:44:57;4.00;4.00;3.00
73828;PMS7003;62176;48.450;-4.466;2022-08-27T00:47:24;5.50;4.75;4.00
73828;PMS7003;62176;48.450;-4.466;2022-08-27T00:49:55;5.75;5.00;4.00
73828;PMS7003;62176;48.450;-4.466;2022-08-27T00:54:57;9.75;7.00;5.00
73828;PMS7003;62176;48.450;-4.466;2022-08-27T00:57:28;5.50;5.50;4.75
73828;PMS7003;62176;48.450;-4.466;2022-08-27T00:59:54;6.00;5.50;4.50
73828;PMS7003;62176;48.450;-4.466;2022-08-27T01:02:20;6.00;6.00;4.75
73828;PMS7003;62176;48.450;-4.466;2022-08-27T01:04:51;5.50;4.75;3.75
73828;PMS7003;62176;48.450;-4.466;2022-08-27T01:07:20;7.25;6.00;5.00
73828;PMS7003;62176;48.450;-4.466;2022-08-27T01:09:47;6.75;6.25;5.00
73828;PMS7003;62176;48.450;-4.466;2022-08-27T01:12:15;5.50;5.50;4.25
73828;PMS7003;62176;48.450;-4.466;2022-08-27T01:14:42;5.50;5.50;4.50
73828;PMS7003;62176;48.450;-4.466;2022-08-27T01:17:09;7.00;7.00;6.00
73828;PMS7003;62176;48.450;-4.466;2022-08-27T01:19:38;8.00;8.00;7.00
73828;PMS7003;62176;48.450;-4.466;2022-08-27T01:24:51;13.75;11.50;8.00
73828;PMS7003;62176;48.450;-4.466;2022-08-27T01:27:21;11.50;7.00;6.00
73828;PMS7003;62176;48.450;-4.466;2022-08-27T01:29:49;6.75;6.75;5.50
73828;PMS7003;62176;48.450;-4.466;2022-08-27T01:32:19;9.00;6.50;5.00
73828;PMS7003;62176;48.450;-4.466;2022-08-27T01:34:47;4.75;4.75;4.00
73828;PMS7003;62176;48.450;-4.466;2022-08-27T01:37:14;8.00;8.00;6.00
73828;PMS7003;62176;48.450;-4.466;2022-08-27T01:39:41;5.75;5.75;5.00
73828;PMS7003;62176;48.450;-4.466;2022-08-27T01:42:17;7.75;7.75;5.75
73828;PMS7003;62176;48.450;-4.466;2022-08-27T01:47:14;7.25;7.25;6.00
73828;PMS7003;62176;48.450;-4.466;2022-08-27T01:49:41;7.75;7.75;6.50
73828;PMS7003;62176;48.450;-4.466;2022-08-27T01:52:07;8.00;8.00;6.00
73828;PMS7003;62176;48.450;-4.466;2022-08-27T01:54:33;11.00;9.00;6.00
73828;PMS7003;62176;48.450;-4.466;2022-08-27T01:56:59;6.25;6.00;5.00
73828;PMS7003;62176;48.450;-4.466;2022-08-27T01:59:25;7.50;7.25;5.50
73828;PMS7003;62176;48.450;-4.466;2022-08-27T02:01:50;8.00;6.50;5.50
73828;PMS7003;62176;48.450;-4.466;2022-08-27T02:04:18;8.00;7.00;6.00
73828;PMS7003;62176;48.450;-4.466;2022-08-27T02:06:43;10.00;10.00;6.50
73828;PMS7003;62176;48.450;-4.466;2022-08-27T02:09:09;7.50;7.50;6.50
73828;PMS7003;62176;48.450;-4.466;2022-08-27T02:11:34;7.75;7.50;5.00
73828;PMS7003;62176;48.450;-4.466;2022-08-27T02:14:00;6.75;6.75;5.50
73828;PMS7003;62176;48.450;-4.466;2022-08-27T02:16:25;7.25;7.25;5.00
73828;PMS7003;62176;48.450;-4.466;2022-08-27T02:18:50;8.75;6.75;5.00
73828;PMS7003;62176;48.450;-4.466;2022-08-27T02:21:18;10.00;7.75;5.75
73828;PMS7003;62176;48.450;-4.466;2022-08-27T02:23:44;8.00;8.00;5.00
73828;PMS7003;62176;48.450;-4.466;2022-08-27T02:26:10;4.50;4.50;3.00
73828;PMS7003;62176;48.450;-4.466;2022-08-27T02:28:35;9.25;8.50;6.00
73828;PMS7003;62176;48.450;-4.466;2022-08-27T02:31:01;8.75;7.75;6.00
73828;PMS7003;62176;48.450;-4.466;2022-08-27T02:33:27;9.00;7.50;6.00
73828;PMS7003;62176;48.450;-4.466;2022-08-27T02:35:52;6.25;5.50;5.00
73828;PMS7003;62176;48.450;-4.466;2022-08-27T02:38:18;7.75;7.50;5.50
73828;PMS7003;62176;48.450;-4.466;2022-08-27T02:40:44;6.50;6.50;5.25
73828;PMS7003;62176;48.450;-4.466;2022-08-27T02:43:10;10.00;9.00;7.00
73828;PMS7003;62176;48.450;-4.466;2022-08-27T02:45:36;5.75;5.75;5.00
73828;PMS7003;62176;48.450;-4.466;2022-08-27T02:48:02;10.00;8.50;6.75
73828;PMS7003;62176;48.450;-4.466;2022-08-27T02:50:28;7.75;6.75;5.00
73828;PMS7003;62176;48.450;-4.466;2022-08-27T02:52:54;6.25;5.50;5.00
73828;PMS7003;62176;48.450;-4.466;2022-08-27T02:55:19;9.50;9.50;6.75
73828;PMS7003;62176;48.450;-4.466;2022-08-27T02:57:46;7.25;5.75;5.00
73828;PMS7003;62176;48.450;-4.466;2022-08-27T03:00:13;9.50;7.75;5.00
73828;PMS7003;62176;48.450;-4.466;2022-08-27T03:02:42;7.75;7.75;6.00
73828;PMS7003;62176;48.450;-4.466;2022-08-27T03:05:08;7.75;7.75;6.00
73828;PMS7003;62176;48.450;-4.466;2022-08-27T03:07:35;9.75;7.75;6.50
73828;PMS7003;62176;48.450;-4.466;2022-08-27T03:10:02;7.75;7.00;5.00
73828;PMS7003;62176;48.450;-4.466;2022-08-27T03:12:29;10.50;9.00;6.75
73828;PMS7003;62176;48.450;-4.466;2022-08-27T03:14:56;9.25;7.00;6.50
73828;PMS7003;62176;48.450;-4.466;2022-08-27T03:17:21;7.00;7.00;5.00
73828;PMS7003;62176;48.450;-4.466;2022-08-27T03:20:06;7.00;7.00;6.00
73828;PMS7003;62176;48.450;-4.466;2022-08-27T03:22:32;6.25;6.00;4.75
73828;PMS7003;62176;48.450;-4.466;2022-08-27T03:25:00;8.50;7.50;5.50
73828;PMS7003;62176;48.450;-4.466;2022-08-27T03:27:26;7.00;5.25;5.00
73828;PMS7003;62176;48.450;-4.466;2022-08-27T03:29:51;7.25;6.25;5.50
73828;PMS7003;62176;48.450;-4.466;2022-08-27T03:32:17;6.75;6.75;5.00
73828;PMS7003;62176;48.450;-4.466;2022-08-27T03:34:42;7.00;7.00;4.50
73828;PMS7003;62176;48.450;-4.466;2022-08-27T03:37:08;6.50;6.00;4.50
73828;PMS7003;62176;48.450;-4.466;2022-08-27T03:39:33;10.25;7.75;5.00
73828;PMS7003;62176;48.450;-4.466;2022-08-27T03:41:59;8.75;7.00;5.75
73828;PMS7003;62176;48.450;-4.466;2022-08-27T03:44:24;10.00;7.00;6.00
73828;PMS7003;62176;48.450;-4.466;2022-08-27T03:46:50;6.00;6.00;4.00
73828;PMS7003;62176;48.450;-4.466;2022-08-27T03:49:17;7.00;7.00;5.00
73828;PMS7003;62176;48.450;-4.466;2022-08-27T03:51:43;7.50;7.50;6.00
73828;PMS7003;62176;48.450;-4.466;2022-08-27T03:54:10;7.00;7.00;6.00
73828;PMS7003;62176;48.450;-4.466;2022-08-27T03:56:35;7.00;7.00;6.00
73828;PMS7003;62176;48.450;-4.466;2022-08-27T03:59:04;8.00;8.00;6.25
73828;PMS7003;62176;48.450;-4.466;2022-08-27T04:01:30;5.25;5.25;5.00
73828;PMS7003;62176;48.450;-4.466;2022-08-27T04:03:56;10.75;7.25;6.00
73828;PMS7003;62176;48.450;-4.466;2022-08-27T04:06:22;9.50;9.00;7.00
73828;PMS7003;62176;48.450;-4.466;2022-08-27T04:08:47;8.25;8.25;6.00
73828;PMS7003;62176;48.450;-4.466;2022-08-27T04:11:13;9.25;8.25;6.75
73828;PMS7003;62176;48.450;-4.466;2022-08-27T04:13:38;7.75;7.75;6.00
73828;PMS7003;62176;48.450;-4.466;2022-08-27T04:16:05;11.50;10.25;6.50
73828;PMS7003;62176;48.450;-4.466;2022-08-27T04:18:31;9.25;8.75;6.25
73828;PMS7003;62176;48.450;-4.466;2022-08-27T04:20:56;9.00;9.00;7.00
73828;PMS7003;62176;48.450;-4.466;2022-08-27T04:23:22;10.00;9.00;7.00
73828;PMS7003;62176;48.450;-4.466;2022-08-27T04:25:48;8.75;8.75;7.00
73828;PMS7003;62176;48.450;-4.466;2022-08-27T04:28:14;9.75;8.25;7.00
73828;PMS7003;62176;48.450;-4.466;2022-08-27T04:30:44;9.50;8.00;6.00
73828;PMS7003;62176;48.450;-4.466;2022-08-27T04:33:11;9.00;9.00;7.00
73828;PMS7003;62176;48.450;-4.466;2022-08-27T04:35:37;7.00;7.00;5.50
73828;PMS7003;62176;48.450;-4.466;2022-08-27T04:38:03;9.25;8.25;6.25
73828;PMS7003;62176;48.450;-4.466;2022-08-27T04:40:29;9.50;9.00;6.50
73828;PMS7003;62176;48.450;-4.466;2022-08-27T04:43:13;8.00;8.00;7.00
73828;PMS7003;62176;48.450;-4.466;2022-08-27T04:45:46;7.50;7.50;6.00
73828;PMS7003;62176;48.450;-4.466;2022-08-27T04:48:13;9.00;8.00;6.00
73828;PMS7003;62176;48.450;-4.466;2022-08-27T04:50:40;11.75;10.75;8.00
73828;PMS7003;62176;48.450;-4.466;2022-08-27T04:53:07;12.50;8.25;6.25
73828;PMS7003;62176;48.450;-4.466;2022-08-27T04:55:39;9.00;9.00;6.75
73828;PMS7003;62176;48.450;-4.466;2022-08-27T04:58:06;9.75;8.00;6.00
73828;PMS7003;62176;48.450;-4.466;2022-08-27T05:00:32;10.50;10.50;7.50
73828;PMS7003;62176;48.450;-4.466;2022-08-27T05:02:57;10.75;9.75;7.75
73828;PMS7003;62176;48.450;-4.466;2022-08-27T05:05:25;11.00;9.50;7.50
73828;PMS7003;62176;48.450;-4.466;2022-08-27T05:07:51;9.00;9.00;6.75
73828;PMS7003;62176;48.450;-4.466;2022-08-27T05:10:16;8.00;8.00;6.50
73828;PMS7003;62176;48.450;-4.466;2022-08-27T05:12:42;16.00;10.50;7.75
73828;PMS7003;62176;48.450;-4.466;2022-08-27T05:15:07;9.50;8.50;7.00
73828;PMS7003;62176;48.450;-4.466;2022-08-27T05:17:33;7.25;7.25;6.00
73828;PMS7003;62176;48.450;-4.466;2022-08-27T05:19:58;9.25;9.25;7.00
73828;PMS7003;62176;48.450;-4.466;2022-08-27T05:22:24;7.00;7.00;6.25
73828;PMS7003;62176;48.450;-4.466;2022-08-27T05:24:51;10.50;9.50;7.50
73828;PMS7003;62176;48.450;-4.466;2022-08-27T05:27:17;8.75;8.75;7.00
73828;PMS7003;62176;48.450;-4.466;2022-08-27T05:29:42;8.75;8.75;6.75
73828;PMS7003;62176;48.450;-4.466;2022-08-27T05:32:07;11.00;8.00;7.00
73828;PMS7003;62176;48.450;-4.466;2022-08-27T05:34:33;9.25;8.25;6.75
73828;PMS7003;62176;48.450;-4.466;2022-08-27T05:36:59;11.00;10.50;7.00
73828;PMS7003;62176;48.450;-4.466;2022-08-27T05:39:25;9.50;9.50;6.75
73828;PMS7003;62176;48.450;-4.466;2022-08-27T05:41:50;11.00;11.00;8.00
73828;PMS7003;62176;48.450;-4.466;2022-08-27T05:44:19;12.75;11.25;7.00
73828;PMS7003;62176;48.450;-4.466;2022-08-27T05:46:45;11.00;10.25;9.00
73828;PMS7003;62176;48.450;-4.466;2022-08-27T05:49:10;15.00;12.00;8.75
73828;PMS7003;62176;48.450;-4.466;2022-08-27T05:51:36;11.25;10.75;8.75
73828;PMS7003;62176;48.450;-4.466;2022-08-27T05:54:06;14.50;12.00;8.50
73828;PMS7003;62176;48.450;-4.466;2022-08-27T05:56:43;10.50;9.00;7.75
73828;PMS7003;62176;48.450;-4.466;2022-08-27T05:59:08;10.75;10.75;7.50
73828;PMS7003;62176;48.450;-4.466;2022-08-27T06:01:53;9.50;9.50;7.00
73828;PMS7003;62176;48.450;-4.466;2022-08-27T06:04:20;8.50;8.00;7.00
73828;PMS7003;62176;48.450;-4.466;2022-08-27T06:06:48;11.75;10.25;7.50
73828;PMS7003;62176;48.450;-4.466;2022-08-27T06:09:15;13.25;9.00;7.75
73828;PMS7003;62176;48.450;-4.466;2022-08-27T06:11:44;10.00;7.50;6.00
73828;PMS7003;62176;48.450;-4.466;2022-08-27T06:14:11;11.25;9.75;7.00
73828;PMS7003;62176;48.450;-4.466;2022-08-27T06:16:37;10.50;9.75;6.75
73828;PMS7003;62176;48.450;-4.466;2022-08-27T06:19:04;11.75;11.25;8.00
73828;PMS7003;62176;48.450;-4.466;2022-08-27T06:21:30;13.00;13.00;8.50
73828;PMS7003;62176;48.450;-4.466;2022-08-27T06:23:56;10.50;10.00;8.00
73828;PMS7003;62176;48.450;-4.466;2022-08-27T06:26:22;10.00;10.00;7.00
73828;PMS7003;62176;48.450;-4.466;2022-08-27T06:28:49;12.50;10.75;7.00
73828;PMS7003;62176;48.450;-4.466;2022-08-27T06:31:16;9.50;9.50;7.25
73828;PMS7003;62176;48.450;-4.466;2022-08-27T06:33:44;10.75;9.50;7.75
73828;PMS7003;62176;48.450;-4.466;2022-08-27T06:36:11;10.00;10.00;8.00
73828;PMS7003;62176;48.450;-4.466;2022-08-27T06:38:40;10.25;9.25;6.75
73828;PMS7003;62176;48.450;-4.466;2022-08-27T06:41:09;12.00;11.00;8.75
73828;PMS7003;62176;48.450;-4.466;2022-08-27T06:43:37;10.75;10.00;7.75
73828;PMS7003;62176;48.450;-4.466;2022-08-27T06:46:05;14.25;14.25;11.00
73828;PMS7003;62176;48.450;-4.466;2022-08-27T06:48:32;11.50;11.50;8.75
73828;PMS7003;62176;48.450;-4.466;2022-08-27T06:50:57;13.50;13.00;10.00
73828;PMS7003;62176;48.450;-4.466;2022-08-27T06:53:23;13.25;11.50;8.50
73828;PMS7003;62176;48.450;-4.466;2022-08-27T06:55:49;13.00;11.00;8.25
73828;PMS7003;62176;48.450;-4.466;2022-08-27T06:58:15;11.00;11.00;8.75
73828;PMS7003;62176;48.450;-4.466;2022-08-27T07:00:42;13.75;13.25;9.50
73828;PMS7003;62176;48.450;-4.466;2022-08-27T07:03:08;15.75;11.50;10.00
73828;PMS7003;62176;48.450;-4.466;2022-08-27T07:05:35;16.00;14.00;10.00
73828;PMS7003;62176;48.450;-4.466;2022-08-27T07:08:02;12.75;12.00;7.00
73828;PMS7003;62176;48.450;-4.466;2022-08-27T07:10:29;11.25;11.25;9.00
73828;PMS7003;62176;48.450;-4.466;2022-08-27T07:12:55;13.25;9.50;6.75
73828;PMS7003;62176;48.450;-4.466;2022-08-27T07:15:21;11.00;10.00;7.00
73828;PMS7003;62176;48.450;-4.466;2022-08-27T07:17:47;11.00;10.00;8.00
73828;PMS7003;62176;48.450;-4.466;2022-08-27T07:20:14;8.25;8.25;6.00
73828;PMS7003;62176;48.450;-4.466;2022-08-27T07:22:41;8.50;7.25;5.25
73828;PMS7003;62176;48.450;-4.466;2022-08-27T07:25:07;9.00;8.00;6.00
73828;PMS7003;62176;48.450;-4.466;2022-08-27T07:27:36;8.00;8.00;6.00
73828;PMS7003;62176;48.450;-4.466;2022-08-27T07:30:03;9.00;8.25;7.00
73828;PMS7003;62176;48.450;-4.466;2022-08-27T07:32:29;8.00;8.00;7.00
73828;PMS7003;62176;48.450;-4.466;2022-08-27T07:34:55;7.00;7.00;6.00
73828;PMS7003;62176;48.450;-4.466;2022-08-27T07:37:20;9.50;7.00;5.00
73828;PMS7003;62176;48.450;-4.466;2022-08-27T07:39:46;7.50;7.50;6.00
73828;PMS7003;62176;48.450;-4.466;2022-08-27T07:42:12;8.00;8.00;5.75
73828;PMS7003;62176;48.450;-4.466;2022-08-27T07:44:56;8.75;8.75;6.00
73828;PMS7003;62176;48.450;-4.466;2022-08-27T07:47:21;7.00;7.00;6.25
73828;PMS7003;62176;48.450;-4.466;2022-08-27T07:49:47;6.50;6.25;5.00
73828;PMS7003;62176;48.450;-4.466;2022-08-27T07:52:12;8.00;7.00;5.75
73828;PMS7003;62176;48.450;-4.466;2022-08-27T07:54:37;6.75;6.75;5.25
73828;PMS7003;62176;48.450;-4.466;2022-08-27T07:57:03;5.75;5.75;4.50
73828;PMS7003;62176;48.450;-4.466;2022-08-27T07:59:29;4.50;4.50;4.00
73828;PMS7003;62176;48.450;-4.466;2022-08-27T08:01:54;6.00;5.00;4.00
73828;PMS7003;62176;48.450;-4.466;2022-08-27T08:04:20;6.50;6.50;5.75
73828;PMS7003;62176;48.450;-4.466;2022-08-27T08:06:47;6.50;3.75;3.25
73828;PMS7003;62176;48.450;-4.466;2022-08-27T08:09:13;5.00;4.50;3.50
73828;PMS7003;62176;48.450;-4.466;2022-08-27T08:11:39;5.75;5.00;3.75
73828;PMS7003;62176;48.450;-4.466;2022-08-27T08:14:05;6.00;6.00;5.25
73828;PMS7003;62176;48.450;-4.466;2022-08-27T08:16:30;4.25;4.25;4.00
73828;PMS7003;62176;48.450;-4.466;2022-08-27T08:18:56;6.25;5.25;5.00
73828;PMS7003;62176;48.450;-4.466;2022-08-27T08:21:22;4.00;4.00;3.75
73828;PMS7003;62176;48.450;-4.466;2022-08-27T08:23:47;6.00;5.25;5.00
73828;PMS7003;62176;48.450;-4.466;2022-08-27T08:26:13;4.75;4.75;4.00
73828;PMS7003;62176;48.450;-4.466;2022-08-27T08:28:39;7.75;5.00;4.00
73828;PMS7003;62176;48.450;-4.466;2022-08-27T08:31:05;6.50;5.25;4.25
73828;PMS7003;62176;48.450;-4.466;2022-08-27T08:33:32;5.25;5.00;4.00
73828;PMS7003;62176;48.450;-4.466;2022-08-27T08:36:16;4.00;4.00;3.50
73828;PMS7003;62176;48.450;-4.466;2022-08-27T08:38:42;3.00;3.00;3.00
73828;PMS7003;62176;48.450;-4.466;2022-08-27T08:41:24;4.25;4.25;3.75
73828;PMS7003;62176;48.450;-4.466;2022-08-27T08:43:55;4.00;4.00;3.00
73828;PMS7003;62176;48.450;-4.466;2022-08-27T08:46:45;4.50;4.50;4.00
73828;PMS7003;62176;48.450;-4.466;2022-08-27T08:52:07;5.75;5.00;4.00
73828;PMS7003;62176;48.450;-4.466;2022-08-27T08:54:41;3.00;3.00;3.00
73828;PMS7003;62176;48.450;-4.466;2022-08-27T08:57:28;5.00;5.00;4.00
73828;PMS7003;62176;48.450;-4.466;2022-08-27T09:00:00;3.25;3.25;2.50
73828;PMS7003;62176;48.450;-4.466;2022-08-27T09:02:31;3.75;3.75;3.50
73828;PMS7003;62176;48.450;-4.466;2022-08-27T09:04:56;3.00;3.00;3.00
73828;PMS7003;62176;48.450;-4.466;2022-08-27T09:07:32;3.00;3.00;2.25
73828;PMS7003;62176;48.450;-4.466;2022-08-27T09:12:40;2.00;2.00;2.00
73828;PMS7003;62176;48.450;-4.466;2022-08-27T09:17:41;4.75;3.25;3.25
73828;PMS7003;62176;48.450;-4.466;2022-08-27T09:20:08;2.25;2.25;1.75
73828;PMS7003;62176;48.450;-4.466;2022-08-27T09:27:35;1.75;1.75;0.75
73828;PMS7003;62176;48.450;-4.466;2022-08-27T09:30:07;4.75;4.00;3.75
73828;PMS7003;62176;48.450;-4.466;2022-08-27T09:32:35;2.50;2.50;2.50
73828;PMS7003;62176;48.450;-4.466;2022-08-27T09:35:02;3.25;3.25;2.50
73828;PMS7003;62176;48.450;-4.466;2022-08-27T09:37:31;5.50;3.50;3.00
73828;PMS7003;62176;48.450;-4.466;2022-08-27T09:42:48;3.50;3.50;2.75
73828;PMS7003;62176;48.450;-4.466;2022-08-27T09:45:19;5.50;2.25;1.50
73828;PMS7003;62176;48.450;-4.466;2022-08-27T09:47:48;3.00;2.00;1.50
73828;PMS7003;62176;48.450;-4.466;2022-08-27T09:50:38;1.75;1.75;1.75
73828;PMS7003;62176;48.450;-4.466;2022-08-27T09:53:19;2.75;2.75;2.00
73828;PMS7003;62176;48.450;-4.466;2022-08-27T09:55:52;3.50;2.50;2.00
73828;PMS7003;62176;48.450;-4.466;2022-08-27T09:58:29;1.50;1.50;1.50
73828;PMS7003;62176;48.450;-4.466;2022-08-27T10:03:31;1.50;1.50;1.00
73828;PMS7003;62176;48.450;-4.466;2022-08-27T10:05:57;3.75;3.00;2.00
73828;PMS7003;62176;48.450;-4.466;2022-08-27T10:08:40;2.00;1.00;1.00
73828;PMS7003;62176;48.450;-4.466;2022-08-27T10:11:16;5.25;3.00;3.00
73828;PMS7003;62176;48.450;-4.466;2022-08-27T10:13:56;3.00;3.00;2.25
73828;PMS7003;62176;48.450;-4.466;2022-08-27T10:22:30;2.75;2.75;2.00
73828;PMS7003;62176;48.450;-4.466;2022-08-27T10:27:36;1.00;1.00;1.00
73828;PMS7003;62176;48.450;-4.466;2022-08-27T10:30:35;2.50;1.00;1.00
73828;PMS7003;62176;48.450;-4.466;2022-08-27T10:36:14;2.50;2.50;2.00
73828;PMS7003;62176;48.450;-4.466;2022-08-27T10:38:55;2.50;2.25;2.00
73828;PMS7003;62176;48.450;-4.466;2022-08-27T10:52:20;2.00;2.00;1.25
73828;PMS7003;62176;48.450;-4.466;2022-08-27T10:54:53;2.25;2.25;1.75
73828;PMS7003;62176;48.450;-4.466;2022-08-27T10:57:44;1.00;1.00;1.00
73828;PMS7003;62176;48.450;-4.466;2022-08-27T11:00:34;1.50;1.00;0.75
73828;PMS7003;62176;48.450;-4.466;2022-08-27T11:03:25;3.25;3.00;3.00
73828;PMS7003;62176;48.450;-4.466;2022-08-27T11:06:07;1.00;1.00;1.00
73828;PMS7003;62176;48.450;-4.466;2022-08-27T11:08:43;1.00;1.00;0.25
73828;PMS7003;62176;48.450;-4.466;2022-08-27T11:11:24;3.50;2.25;1.50
73828;PMS7003;62176;48.450;-4.466;2022-08-27T11:13:57;1.25;1.25;1.00
73828;PMS7003;62176;48.450;-4.466;2022-08-27T11:16:31;1.00;1.00;1.00
73828;PMS7003;62176;48.450;-4.466;2022-08-27T11:24:27;2.00;2.00;2.00
73828;PMS7003;62176;48.450;-4.466;2022-08-27T11:27:07;2.50;1.25;1.00
73828;PMS7003;62176;48.450;-4.466;2022-08-27T11:29:34;2.00;2.00;1.00
73828;PMS7003;62176;48.450;-4.466;2022-08-27T11:32:13;2.25;2.00;2.00
73828;PMS7003;62176;48.450;-4.466;2022-08-27T11:34:50;3.25;2.00;1.25
73828;PMS7003;62176;48.450;-4.466;2022-08-27T11:37:28;2.25;2.00;1.50
73828;PMS7003;62176;48.450;-4.466;2022-08-27T11:40:31;2.00;2.00;2.00
73828;PMS7003;62176;48.450;-4.466;2022-08-27T11:43:12;2.00;0.50;0.00
73828;PMS7003;62176;48.450;-4.466;2022-08-27T11:45:55;2.00;2.00;1.75
73828;PMS7003;62176;48.450;-4.466;2022-08-27T11:48:27;1.00;1.00;1.00
73828;PMS7003;62176;48.450;-4.466;2022-08-27T11:50:59;1.75;1.75;1.50
73828;PMS7003;62176;48.450;-4.466;2022-08-27T11:53:31;2.00;2.00;1.00
73828;PMS7003;62176;48.450;-4.466;2022-08-27T11:56:15;2.00;2.00;2.00
73828;PMS7003;62176;48.450;-4.466;2022-08-27T12:01:48;2.25;2.25;2.00
73828;PMS7003;62176;48.450;-4.466;2022-08-27T12:04:36;3.00;1.25;1.00
73828;PMS7003;62176;48.450;-4.466;2022-08-27T12:15:05;2.00;2.00;2.00
73828;PMS7003;62176;48.450;-4.466;2022-08-27T12:25:33;2.00;2.00;2.00
73828;PMS7003;62176;48.450;-4.466;2022-08-27T12:27:59;1.00;1.00;1.00
73828;PMS7003;62176;48.450;-4.466;2022-08-27T12:30:30;2.00;2.00;1.25
73828;PMS7003;62176;48.450;-4.466;2022-08-27T12:33:04;2.00;2.00;2.00
73828;PMS7003;62176;48.450;-4.466;2022-08-27T12:35:54;1.50;1.50;1.50
73828;PMS7003;62176;48.450;-4.466;2022-08-27T12:40:57;3.00;2.00;1.75
73828;PMS7003;62176;48.450;-4.466;2022-08-27T12:43:28;2.00;2.00;2.00
73828;PMS7003;62176;48.450;-4.466;2022-08-27T12:46:04;3.50;3.50;3.00
73828;PMS7003;62176;48.450;-4.466;2022-08-27T12:48:41;2.25;2.25;2.00
73828;PMS7003;62176;48.450;-4.466;2022-08-27T12:53:47;5.50;5.50;4.50
73828;PMS7003;62176;48.450;-4.466;2022-08-27T12:58:59;2.00;2.00;1.50
73828;PMS7003;62176;48.450;-4.466;2022-08-27T13:04:39;1.00;1.00;0.50
73828;PMS7003;62176;48.450;-4.466;2022-08-27T13:07:06;2.75;2.75;2.50
73828;PMS7003;62176;48.450;-4.466;2022-08-27T13:09:33;7.00;5.00;4.50
73828;PMS7003;62176;48.450;-4.466;2022-08-27T13:12:00;1.50;1.50;1.00
73828;PMS7003;62176;48.450;-4.466;2022-08-27T13:14:33;1.50;1.50;1.00
73828;PMS7003;62176;48.450;-4.466;2022-08-27T13:17:03;1.50;1.50;1.50
73828;PMS7003;62176;48.450;-4.466;2022-08-27T13:19:33;1.00;1.00;1.00
73828;PMS7003;62176;48.450;-4.466;2022-08-27T13:22:07;2.25;2.25;2.00
73828;PMS7003;62176;48.450;-4.466;2022-08-27T13:24:34;1.00;1.00;1.00
73828;PMS7003;62176;48.450;-4.466;2022-08-27T13:27:02;1.00;1.00;1.00
73828;PMS7003;62176;48.450;-4.466;2022-08-27T13:29:30;1.25;1.25;1.00
73828;PMS7003;62176;48.450;-4.466;2022-08-27T13:31:57;3.50;2.50;2.00
73828;PMS7003;62176;48.450;-4.466;2022-08-27T13:34:24;2.00;1.50;1.25
73828;PMS7003;62176;48.450;-4.466;2022-08-27T13:39:28;1.75;1.75;1.00
73828;PMS7003;62176;48.450;-4.466;2022-08-27T13:41:53;2.00;2.00;1.00
73828;PMS7003;62176;48.450;-4.466;2022-08-27T13:44:24;2.25;2.25;2.00
73828;PMS7003;62176;48.450;-4.466;2022-08-27T13:46:59;1.00;1.00;1.00
73828;PMS7003;62176;48.450;-4.466;2022-08-27T13:49:28;1.00;1.00;1.00
73828;PMS7003;62176;48.450;-4.466;2022-08-27T13:54:30;2.00;2.00;2.00
73828;PMS7003;62176;48.450;-4.466;2022-08-27T13:57:02;1.00;1.00;1.00
73828;PMS7003;62176;48.450;-4.466;2022-08-27T13:59:33;1.75;1.50;1.25
73828;PMS7003;62176;48.450;-4.466;2022-08-27T14:07:05;1.00;1.00;1.00
73828;PMS7003;62176;48.450;-4.466;2022-08-27T14:09:40;1.00;1.00;1.00
73828;PMS7003;62176;48.450;-4.466;2022-08-27T14:12:08;1.25;1.00;1.00
73828;PMS7003;62176;48.450;-4.466;2022-08-27T14:14:38;1.75;1.75;1.50
73828;PMS7003;62176;48.450;-4.466;2022-08-27T14:17:06;1.00;1.00;1.00
73828;PMS7003;62176;48.450;-4.466;2022-08-27T14:19:45;2.00;2.00;1.75
73828;PMS7003;62176;48.450;-4.466;2022-08-27T14:22:11;2.00;0.75;0.50
73828;PMS7003;62176;48.450;-4.466;2022-08-27T14:24:37;1.00;1.00;1.00
73828;PMS7003;62176;48.450;-4.466;2022-08-27T14:27:10;1.00;1.00;1.00
73828;PMS7003;62176;48.450;-4.466;2022-08-27T14:29:38;1.00;1.00;1.00
73828;PMS7003;62176;48.450;-4.466;2022-08-27T14:32:04;1.00;1.00;1.00
73828;PMS7003;62176;48.450;-4.466;2022-08-27T14:34:31;0.00;0.00;0.00
73828;PMS7003;62176;48.450;-4.466;2022-08-27T14:36:57;1.75;1.00;1.00
73828;PMS7003;62176;48.450;-4.466;2022-08-27T14:39:22;2.25;1.00;1.00
73828;PMS7003;62176;48.450;-4.466;2022-08-27T14:41:48;1.75;1.00;1.00
73828;PMS7003;62176;48.450;-4.466;2022-08-27T14:44:13;0.25;0.25;0.00
73828;PMS7003;62176;48.450;-4.466;2022-08-27T14:46:39;1.00;1.00;1.00
73828;PMS7003;62176;48.450;-4.466;2022-08-27T14:49:12;1.00;1.00;1.00
73828;PMS7003;62176;48.450;-4.466;2022-08-27T14:51:42;1.00;1.00;1.00
73828;PMS7003;62176;48.450;-4.466;2022-08-27T14:54:10;1.75;1.00;1.00
73828;PMS7003;62176;48.450;-4.466;2022-08-27T14:56:35;1.00;0.00;0.00
73828;PMS7003;62176;48.450;-4.466;2022-08-27T14:59:01;0.00;0.00;0.00
73828;PMS7003;62176;48.450;-4.466;2022-08-27T15:01:27;0.25;0.25;0.00
73828;PMS7003;62176;48.450;-4.466;2022-08-27T15:03:53;1.00;1.00;0.75
73828;PMS7003;62176;48.450;-4.466;2022-08-27T15:06:20;0.00;0.00;0.00
73828;PMS7003;62176;48.450;-4.466;2022-08-27T15:08:47;3.75;1.00;0.25
73828;PMS7003;62176;48.450;-4.466;2022-08-27T15:11:14;0.00;0.00;0.00
73828;PMS7003;62176;48.450;-4.466;2022-08-27T15:13:42;1.50;1.00;0.00
73828;PMS7003;62176;48.450;-4.466;2022-08-27T15:16:08;0.00;0.00;0.00
73828;PMS7003;62176;48.450;-4.466;2022-08-27T15:18:34;0.75;0.00;0.00
73828;PMS7003;62176;48.450;-4.466;2022-08-27T15:20:59;0.00;0.00;0.00
73828;PMS7003;62176;48.450;-4.466;2022-08-27T15:23:25;0.00;0.00;0.00
73828;PMS7003;62176;48.450;-4.466;2022-08-27T15:25:50;0.00;0.00;0.00
73828;PMS7003;62176;48.450;-4.466;2022-08-27T15:28:16;2.00;0.00;0.00
73828;PMS7003;62176;48.450;-4.466;2022-08-27T15:30:41;0.00;0.00;0.00
73828;PMS7003;62176;48.450;-4.466;2022-08-27T15:33:07;0.00;0.00;0.00
73828;PMS7003;62176;48.450;-4.466;2022-08-27T15:35:33;0.00;0.00;0.00
73828;PMS7003;62176;48.450;-4.466;2022-08-27T15:37:58;0.00;0.00;0.00
73828;PMS7003;62176;48.450;-4.466;2022-08-27T15:40:25;0.00;0.00;0.00
73828;PMS7003;62176;48.450;-4.466;2022-08-27T15:42:58;0.00;0.00;0.00
73828;PMS7003;62176;48.450;-4.466;2022-08-27T15:45:28;0.00;0.00;0.00
73828;PMS7003;62176;48.450;-4.466;2022-08-27T15:47:55;0.00;0.00;0.00
73828;PMS7003;62176;48.450;-4.466;2022-08-27T15:50:21;0.00;0.00;0.00